• Join FlightAware (Why Join?)
  • Login
  • US Flag 
10:09PM EDT


 

Airport Tracker/Info


-or-


 

Live Flight TrackerFlight Track Log ✈ DAL1890 ✈ 01-May-2013 ✈ KDFW - KATL

Flight Track Log - Related Links

Times and Time Zones

All times are in EDT time to prevent confusion due to time zone crossing. See the DAL1890 flight status page for this flight to view local times or setup timezone preferences in your user account.

Time Position Orientation Groundspeed Altitude Reporting Facility
EDT Latitude Longitude Course Direction KTS MPH feet Rate Location/Type
06:55AM 32.8833 -97.0333 65° Northeast 155 178 1,300  Level Dallas / Fort Worth TRACON
06:56AM 32.8500 -97.0333 180° South 200 230 2,700 2,100 Climbing Dallas / Fort Worth TRACON
06:57AM 32.6833 -96.8191 90° East  Level FlightAware Approximate
06:57AM 32.7833 -97.0333 180° South 250 288 5,400  Level Dallas / Fort Worth TRACON
06:58AM 32.7207 -96.6881 68° East  Level FlightAware Approximate
06:58AM 32.7500 -96.9500 115° Southeast 299 344 7,700  Level Dallas / Fort Worth TRACON
06:59AM 32.7639 -96.5583 68° East  Level FlightAware Approximate
07:00AM 32.8124 -96.4312 65° Northeast  Level FlightAware Approximate
07:00AM 32.7897 -96.7436 77° East 301 346 12,000  Level Fort Worth Center
07:01AM 32.8142 -96.6150 77° East 346 398 14,900 2,580 Climbing Fort Worth Center
07:02AM 32.8342 -96.5036 78° East 379 436 17,200 2,400 Climbing Fort Worth Center
07:03AM 32.8603 -96.3647 77° East 384 442 19,800 2,100 Climbing Fort Worth Center
07:04AM 32.8656 -96.2436 87° East 399 459 21,500 1,980 Climbing Fort Worth Center
07:05AM 32.8703 -96.0925 88° East 412 474 23,800 1,800 Climbing Fort Worth Center
07:06AM 32.8731 -95.9664 88° East 418 481 25,200 1,680 Climbing Fort Worth Center
07:07AM 32.8753 -95.8081 89° East 428 493 27,200 1,860 Climbing Fort Worth Center
07:08AM 32.8758 -95.6819 90° East 422 486 29,000 1,500 Climbing Fort Worth Center
07:09AM 32.8756 -95.5261 90° East 423 487 30,200 1,380 Climbing Fort Worth Center
07:10AM 32.8817 -95.3850 87° East 423 487 31,800 1,380 Climbing Fort Worth Center
07:11AM 32.8983 -95.2436 82° East 423 487 33,000 900 Climbing Fort Worth Center
07:12AM 32.9208 -95.1019 79° East 423 487 33,600 840 Climbing Fort Worth Center
07:13AM 32.9389 -94.9556 82° East 434 499 34,700 1,140 Climbing Fort Worth Center
07:14AM 32.9567 -94.8114 82° East 434 499 35,900 900 Climbing Fort Worth Center
07:15AM 32.9767 -94.6672 81° East 434 499 36,500 540 Climbing Fort Worth Center
07:16AM 32.9944 -94.5231 82° East 434 499 37,000 240 Climbing Fort Worth Center
07:17AM 33.0158 -94.3736 80° East 446 513 37,000  Level Fort Worth Center
07:18AM 33.0331 -94.2219 82° East 451 519 37,000  Level Fort Worth Center
07:19AM 33.0519 -94.0725 81° East 451 519 37,000  Level Fort Worth Center
07:20AM 33.0689 -93.9231 82° East 451 519 37,000  Level Fort Worth Center
07:21AM 33.0897 -93.7711 81° East 451 519 37,000  Level Fort Worth Center
07:22AM 33.1083 -93.6242 81° East 451 519 37,000  Level Fort Worth Center
07:23AM 33.1264 -93.4719 82° East 451 519 37,000  Level Fort Worth Center
07:24AM 33.1467 -93.3222 81° East 451 519 37,000  Level Fort Worth Center
07:25AM 33.1628 -93.1753 82° East 451 519 37,000  Level Fort Worth Center
07:26AM 33.1828 -93.0303 81° East 451 519 37,000  Level Fort Worth Center
07:27AM 33.2006 -92.8806 82° East 451 519 37,000  Level Fort Worth Center
07:28AM 33.2178 -92.7306 82° East 451 519 37,000  Level Fort Worth Center
07:29AM 33.2333 -92.5833 83° East 451 519 37,000  Level Fort Worth Center
07:30AM 33.2525 -92.4358 81° East 451 519 37,000  Level Fort Worth Center
07:31AM 33.2717 -92.2381 83° East 459 528 37,000  Level Memphis Center
07:32AM 33.2903 -92.0919 81° East 454 522 37,000  Level Memphis Center
07:33AM 33.3050 -91.9431 83° East 454 522 37,000  Level Memphis Center
07:34AM 33.3214 -91.7942 82° East 448 516 37,000  Level Memphis Center
07:35AM 33.3314 -91.6328 86° East 440 506 37,000  Level Memphis Center
07:36AM 33.3453 -91.4836 84° East 445 512 37,000  Level Memphis Center
07:37AM 33.3611 -91.3372 83° East 445 512 37,000  Level Memphis Center
07:38AM 33.3789 -91.1881 82° East 445 512 37,000  Level Memphis Center
07:39AM 33.3922 -91.0439 84° East 445 512 37,000  Level Memphis Center
07:40AM 33.4056 -90.8922 84° East 445 512 37,000  Level Memphis Center
07:41AM 33.4186 -90.7406 84° East 445 512 37,000  Level Memphis Center
07:42AM 33.4336 -90.5911 83° East 445 512 37,000  Level Memphis Center
07:43AM 33.4483 -90.4419 83° East 445 512 37,000  Level Memphis Center
07:44AM 33.4611 -90.2900 84° East 445 512 37,000  Level Memphis Center
07:45AM 33.4544 -90.1406 93° East 445 512 37,000  Level Memphis Center
07:46AM 33.4458 -89.9911 94° East 445 512 37,000  Level Memphis Center
07:47AM 33.4369 -89.8394 94° East 445 512 37,000  Level Memphis Center
07:48AM 33.4278 -89.6903 94° East 445 512 37,000  Level Memphis Center
07:49AM 33.4164 -89.5383 95° East 445 512 37,000  Level Memphis Center
07:50AM 33.4069 -89.3867 94° East 445 512 37,000  Level Memphis Center
07:51AM 33.3786 -89.2403 103° East 445 512 37,000  Level Memphis Center
07:52AM 33.3356 -89.0992 110° East 445 512 37,000  Level Memphis Center
07:53AM 33.2925 -88.9606 110° East 445 512 37,000  Level Memphis Center
07:54AM 33.2467 -88.8147 111° Southeast 452 520 37,000  Level Memphis Center
07:55AM 33.2011 -88.6739 111° Southeast 452 520 37,000  Level Memphis Center
07:56AM 33.1553 -88.5308 111° Southeast 452 520 37,000  Level Memphis Center
07:57AM 33.1114 -88.3906 110° East 452 520 37,000  Level Memphis Center
08:00AM 33.0058 -88.0786 112° Southeast 456 525 37,000  Level Atlanta Center
08:01AM 32.9625 -87.9331 110° East 456 525 37,000  Level Atlanta Center
08:02AM 32.9169 -87.7875 110° East 461 531 37,000  Level Atlanta Center
08:03AM 32.8711 -87.6447 111° Southeast 461 531 37,000  Level Atlanta Center
08:04AM 32.8208 -87.5017 113° Southeast 461 531 37,000  Level Atlanta Center
08:05AM 32.7750 -87.3542 110° East 461 531 37,000  Level Atlanta Center
08:06AM 32.7244 -87.2092 112° Southeast 461 531 37,000  Level Atlanta Center
08:07AM 32.6781 -87.0667 111° Southeast 456 525 37,000 -1,080 Level Atlanta Center
08:08AM 32.6608 -86.9108 97° East 461 531 34,900 -1,800 Descending Atlanta Center
08:09AM 32.6936 -86.7514 76° East 461 531 33,400 -2,040 Descending Atlanta Center
08:10AM 32.7281 -86.6019 75° East 468 539 30,900 -2,400 Descending Atlanta Center
08:11AM 32.7669 -86.4425 74° East 463 533 28,600 -1,680 Descending Atlanta Center
08:12AM 32.8031 -86.2878 74° East 463 533 27,600 -1,020 Descending Atlanta Center
08:13AM 32.8347 -86.1475 75° East 463 533 26,600 -960 Descending Atlanta Center
08:14AM 32.8686 -86.0050 74° East 450 518 25,700 -960 Descending Atlanta Center
08:15AM 32.9103 -85.8697 70° East 437 503 24,700 -960 Descending Atlanta Center
08:16AM 32.9539 -85.7369 69° East 426 490 23,800 -1,320 Descending Atlanta Center
08:17AM 32.9953 -85.6042 70° East 426 490 22,100 -2,100 Descending Atlanta Center
08:18AM 33.0386 -85.4811 67° East 416 479 19,700 -2,220 Descending Atlanta Center
08:19AM 33.0775 -85.3628 69° East 392 451 17,700 -2,160 Descending Atlanta Center
08:20AM 33.1142 -85.2492 69° East 378 435 15,400 -2,280 Descending Atlanta Center
08:21AM 33.1486 -85.1381 70° East 363 418 13,200 -1,680 Descending Atlanta Center
08:22AM 33.1828 -85.0392 68° East 340 391 12,100 -660 Descending Atlanta Center
08:23AM 33.2314 -84.9675 51° Northeast 295 339 11,900 -960 Descending Atlanta Center
08:24AM 33.2778 -84.9061 48° Northeast 259 298 10,200 -1,740 Descending Atlanta Center
08:25AM 33.3242 -84.8467 47° Northeast 239 275 8,500 -1,440 Descending Atlanta Center
08:26AM 33.3619 -84.7875 53° Northeast 234 269 7,400 -1,380 Descending Atlanta Center
08:27AM 33.4144 -84.7581 25° Northeast 212 244 5,800 -1,680 Descending Atlanta Center
08:27AM 33.4333 -84.7667 339° North 252 290 5,200 -720 Descending Atlanta TRACON
08:28AM 33.4833 -84.8333 312° West 253 291 4,900 -600 Descending Atlanta TRACON
08:29AM 33.5167 -84.9000 301° West 238 274 4,000 -600 Descending Atlanta TRACON
08:30AM 33.5492 -84.9136 341° North 234 269 4,000  Level Atlanta Center
08:32AM 33.6167 -84.8333 45° Northeast 172 198 4,000  Level Atlanta TRACON
08:33AM 33.6167 -84.7667 90° East 174 200 4,000  Level Atlanta TRACON
08:34AM 33.6167 -84.7167 90° East 171 197 4,000  Level Atlanta TRACON
08:35AM 33.6167 -84.6667 90° East 171 197 4,000 -240 Level Atlanta TRACON
08:36AM 33.6167 -84.6000 90° East 170 196 3,600 -720 Descending Atlanta TRACON
08:37AM 33.6167 -84.5500 90° East 173 199 2,600 -1,020 Descending Atlanta TRACON